sensor_id;sensor_type;location;lat;lon;timestamp;P1;durP1;ratioP1;P2;durP2;ratioP2
62679;SDS011;68213;40.528;44.712;2023-05-08T00:00:25;13.40;;;3.35;;
62679;SDS011;68213;40.528;44.712;2023-05-08T00:01:25;15.02;;;3.20;;
62679;SDS011;68213;40.528;44.712;2023-05-08T00:02:29;16.08;;;3.70;;
62679;SDS011;68213;40.528;44.712;2023-05-08T00:03:30;13.65;;;3.33;;
62679;SDS011;68213;40.528;44.712;2023-05-08T00:04:31;22.10;;;4.05;;
62679;SDS011;68213;40.528;44.712;2023-05-08T00:05:32;20.02;;;3.40;;
62679;SDS011;68213;40.528;44.712;2023-05-08T00:06:32;15.48;;;3.17;;
62679;SDS011;68213;40.528;44.712;2023-05-08T00:07:34;11.57;;;3.45;;
62679;SDS011;68213;40.528;44.712;2023-05-08T00:08:36;11.18;;;3.25;;
62679;SDS011;68213;40.528;44.712;2023-05-08T00:09:37;13.43;;;3.10;;
62679;SDS011;68213;40.528;44.712;2023-05-08T00:10:37;12.38;;;4.07;;
62679;SDS011;68213;40.528;44.712;2023-05-08T00:11:38;16.30;;;3.33;;
62679;SDS011;68213;40.528;44.712;2023-05-08T00:12:39;16.73;;;3.88;;
62679;SDS011;68213;40.528;44.712;2023-05-08T00:13:39;12.55;;;3.40;;
62679;SDS011;68213;40.528;44.712;2023-05-08T00:14:40;12.10;;;3.35;;
62679;SDS011;68213;40.528;44.712;2023-05-08T00:15:41;9.68;;;3.40;;
62679;SDS011;68213;40.528;44.712;2023-05-08T00:16:42;17.50;;;3.70;;
62679;SDS011;68213;40.528;44.712;2023-05-08T00:17:43;12.93;;;3.08;;
62679;SDS011;68213;40.528;44.712;2023-05-08T00:18:43;11.07;;;3.20;;
62679;SDS011;68213;40.528;44.712;2023-05-08T00:19:44;17.83;;;3.53;;
62679;SDS011;68213;40.528;44.712;2023-05-08T00:20:45;17.58;;;3.55;;
62679;SDS011;68213;40.528;44.712;2023-05-08T00:21:45;15.05;;;3.60;;
62679;SDS011;68213;40.528;44.712;2023-05-08T00:22:46;12.82;;;3.28;;
62679;SDS011;68213;40.528;44.712;2023-05-08T00:23:47;12.23;;;3.08;;
62679;SDS011;68213;40.528;44.712;2023-05-08T00:24:47;10.85;;;3.00;;
62679;SDS011;68213;40.528;44.712;2023-05-08T00:25:48;17.23;;;3.35;;
62679;SDS011;68213;40.528;44.712;2023-05-08T00:26:51;11.60;;;3.25;;
62679;SDS011;68213;40.528;44.712;2023-05-08T00:27:53;14.40;;;3.40;;
62679;SDS011;68213;40.528;44.712;2023-05-08T00:28:54;15.60;;;3.13;;
62679;SDS011;68213;40.528;44.712;2023-05-08T00:29:54;15.63;;;3.63;;
62679;SDS011;68213;40.528;44.712;2023-05-08T00:30:58;19.52;;;4.10;;
62679;SDS011;68213;40.528;44.712;2023-05-08T00:32:00;14.85;;;3.70;;
62679;SDS011;68213;40.528;44.712;2023-05-08T00:33:01;16.13;;;3.90;;
62679;SDS011;68213;40.528;44.712;2023-05-08T00:34:01;15.15;;;3.70;;
62679;SDS011;68213;40.528;44.712;2023-05-08T00:35:02;17.45;;;3.63;;
62679;SDS011;68213;40.528;44.712;2023-05-08T00:36:03;14.90;;;4.28;;
62679;SDS011;68213;40.528;44.712;2023-05-08T00:37:04;16.55;;;4.03;;
62679;SDS011;68213;40.528;44.712;2023-05-08T00:38:05;18.67;;;4.00;;
62679;SDS011;68213;40.528;44.712;2023-05-08T00:39:06;18.10;;;4.20;;
62679;SDS011;68213;40.528;44.712;2023-05-08T00:40:07;11.48;;;3.90;;
62679;SDS011;68213;40.528;44.712;2023-05-08T00:41:09;21.90;;;4.13;;
62679;SDS011;68213;40.528;44.712;2023-05-08T00:42:10;16.52;;;4.30;;
62679;SDS011;68213;40.528;44.712;2023-05-08T00:43:11;28.20;;;4.47;;
62679;SDS011;68213;40.528;44.712;2023-05-08T00:44:11;19.92;;;4.40;;
62679;SDS011;68213;40.528;44.712;2023-05-08T00:45:12;17.73;;;4.57;;
62679;SDS011;68213;40.528;44.712;2023-05-08T00:46:13;16.17;;;4.45;;
62679;SDS011;68213;40.528;44.712;2023-05-08T00:47:13;21.00;;;4.43;;
62679;SDS011;68213;40.528;44.712;2023-05-08T00:48:14;11.00;;;4.07;;
62679;SDS011;68213;40.528;44.712;2023-05-08T00:49:15;16.20;;;3.90;;
62679;SDS011;68213;40.528;44.712;2023-05-08T00:50:16;16.17;;;3.97;;
62679;SDS011;68213;40.528;44.712;2023-05-08T00:51:17;15.43;;;4.28;;
62679;SDS011;68213;40.528;44.712;2023-05-08T00:52:18;12.10;;;4.22;;
62679;SDS011;68213;40.528;44.712;2023-05-08T00:53:20;14.27;;;4.50;;
62679;SDS011;68213;40.528;44.712;2023-05-08T00:54:22;23.20;;;4.60;;
62679;SDS011;68213;40.528;44.712;2023-05-08T00:55:23;17.25;;;4.03;;
62679;SDS011;68213;40.528;44.712;2023-05-08T00:56:24;12.70;;;4.00;;
62679;SDS011;68213;40.528;44.712;2023-05-08T00:57:26;16.92;;;4.45;;
62679;SDS011;68213;40.528;44.712;2023-05-08T00:58:28;17.17;;;4.40;;
62679;SDS011;68213;40.528;44.712;2023-05-08T00:59:31;15.93;;;4.40;;
62679;SDS011;68213;40.528;44.712;2023-05-08T01:00:33;16.88;;;4.72;;
62679;SDS011;68213;40.528;44.712;2023-05-08T01:01:37;27.08;;;5.05;;
62679;SDS011;68213;40.528;44.712;2023-05-08T01:02:39;20.98;;;4.28;;
62679;SDS011;68213;40.528;44.712;2023-05-08T01:03:41;16.65;;;3.90;;
62679;SDS011;68213;40.528;44.712;2023-05-08T01:04:43;17.30;;;4.97;;
62679;SDS011;68213;40.528;44.712;2023-05-08T01:05:45;16.85;;;4.97;;
62679;SDS011;68213;40.528;44.712;2023-05-08T01:06:46;14.05;;;4.10;;
62679;SDS011;68213;40.528;44.712;2023-05-08T01:07:46;19.98;;;4.40;;
62679;SDS011;68213;40.528;44.712;2023-05-08T01:08:47;21.40;;;4.70;;
62679;SDS011;68213;40.528;44.712;2023-05-08T01:09:48;16.50;;;4.50;;
62679;SDS011;68213;40.528;44.712;2023-05-08T01:11:59;14.00;;;3.92;;
62679;SDS011;68213;40.528;44.712;2023-05-08T01:14:31;21.33;;;4.55;;
62679;SDS011;68213;40.528;44.712;2023-05-08T01:16:31;15.65;;;4.55;;
62679;SDS011;68213;40.528;44.712;2023-05-08T01:19:05;12.68;;;4.05;;
62679;SDS011;68213;40.528;44.712;2023-05-08T01:21:45;17.27;;;4.97;;
62679;SDS011;68213;40.528;44.712;2023-05-08T01:24:18;14.68;;;4.35;;
62679;SDS011;68213;40.528;44.712;2023-05-08T01:28:20;14.52;;;3.80;;
62679;SDS011;68213;40.528;44.712;2023-05-08T01:32:33;11.30;;;3.80;;
62679;SDS011;68213;40.528;44.712;2023-05-08T01:33:42;14.70;;;4.25;;
62679;SDS011;68213;40.528;44.712;2023-05-08T01:35:55;19.20;;;4.38;;
62679;SDS011;68213;40.528;44.712;2023-05-08T01:37:04;13.43;;;4.57;;
62679;SDS011;68213;40.528;44.712;2023-05-08T01:38:09;22.38;;;4.72;;
62679;SDS011;68213;40.528;44.712;2023-05-08T01:40:52;16.10;;;4.13;;
62679;SDS011;68213;40.528;44.712;2023-05-08T01:41:57;19.98;;;4.40;;
62679;SDS011;68213;40.528;44.712;2023-05-08T01:43:09;10.80;;;3.72;;
62679;SDS011;68213;40.528;44.712;2023-05-08T01:44:22;15.77;;;4.35;;
62679;SDS011;68213;40.528;44.712;2023-05-08T01:45:33;13.85;;;4.07;;
62679;SDS011;68213;40.528;44.712;2023-05-08T01:46:39;9.95;;;3.92;;
62679;SDS011;68213;40.528;44.712;2023-05-08T01:47:43;11.23;;;3.80;;
62679;SDS011;68213;40.528;44.712;2023-05-08T01:48:55;13.80;;;3.95;;
62679;SDS011;68213;40.528;44.712;2023-05-08T01:50:24;19.88;;;3.97;;
62679;SDS011;68213;40.528;44.712;2023-05-08T01:51:31;18.25;;;4.28;;
62679;SDS011;68213;40.528;44.712;2023-05-08T01:52:42;17.05;;;3.90;;
62679;SDS011;68213;40.528;44.712;2023-05-08T01:53:50;16.48;;;3.72;;
62679;SDS011;68213;40.528;44.712;2023-05-08T01:55:04;16.45;;;4.20;;
62679;SDS011;68213;40.528;44.712;2023-05-08T01:56:14;11.90;;;4.22;;
62679;SDS011;68213;40.528;44.712;2023-05-08T01:57:26;12.35;;;3.78;;
62679;SDS011;68213;40.528;44.712;2023-05-08T01:58:29;18.13;;;3.83;;
62679;SDS011;68213;40.528;44.712;2023-05-08T01:59:33;13.93;;;3.65;;
62679;SDS011;68213;40.528;44.712;2023-05-08T02:00:38;16.40;;;3.35;;
62679;SDS011;68213;40.528;44.712;2023-05-08T02:01:41;16.50;;;3.53;;
62679;SDS011;68213;40.528;44.712;2023-05-08T02:02:44;15.10;;;3.60;;
62679;SDS011;68213;40.528;44.712;2023-05-08T02:03:46;14.18;;;3.55;;
62679;SDS011;68213;40.528;44.712;2023-05-08T02:04:48;17.80;;;3.92;;
62679;SDS011;68213;40.528;44.712;2023-05-08T02:05:53;18.17;;;4.40;;
62679;SDS011;68213;40.528;44.712;2023-05-08T02:06:56;12.45;;;4.20;;
62679;SDS011;68213;40.528;44.712;2023-05-08T02:07:58;28.23;;;4.13;;
62679;SDS011;68213;40.528;44.712;2023-05-08T02:09:00;19.83;;;4.75;;
62679;SDS011;68213;40.528;44.712;2023-05-08T02:10:02;11.25;;;3.72;;
62679;SDS011;68213;40.528;44.712;2023-05-08T02:11:05;16.92;;;3.92;;
62679;SDS011;68213;40.528;44.712;2023-05-08T02:12:06;12.38;;;4.57;;
62679;SDS011;68213;40.528;44.712;2023-05-08T02:13:09;15.15;;;4.50;;
62679;SDS011;68213;40.528;44.712;2023-05-08T02:14:12;14.52;;;3.70;;
62679;SDS011;68213;40.528;44.712;2023-05-08T02:15:16;15.90;;;4.30;;
62679;SDS011;68213;40.528;44.712;2023-05-08T02:16:18;15.98;;;4.75;;
62679;SDS011;68213;40.528;44.712;2023-05-08T02:17:20;17.02;;;4.25;;
62679;SDS011;68213;40.528;44.712;2023-05-08T02:18:22;22.15;;;4.80;;
62679;SDS011;68213;40.528;44.712;2023-05-08T02:19:24;20.60;;;4.65;;
62679;SDS011;68213;40.528;44.712;2023-05-08T02:20:28;15.00;;;4.30;;
62679;SDS011;68213;40.528;44.712;2023-05-08T02:21:31;11.75;;;4.55;;
62679;SDS011;68213;40.528;44.712;2023-05-08T02:22:34;14.70;;;5.20;;
62679;SDS011;68213;40.528;44.712;2023-05-08T02:23:36;13.65;;;4.30;;
62679;SDS011;68213;40.528;44.712;2023-05-08T02:24:37;14.30;;;4.80;;
62679;SDS011;68213;40.528;44.712;2023-05-08T02:25:39;14.32;;;5.13;;
62679;SDS011;68213;40.528;44.712;2023-05-08T02:26:41;13.82;;;5.40;;
62679;SDS011;68213;40.528;44.712;2023-05-08T02:27:44;15.45;;;5.57;;
62679;SDS011;68213;40.528;44.712;2023-05-08T02:28:47;11.48;;;5.80;;
62679;SDS011;68213;40.528;44.712;2023-05-08T02:29:49;12.32;;;5.93;;
62679;SDS011;68213;40.528;44.712;2023-05-08T02:30:51;13.15;;;6.18;;
62679;SDS011;68213;40.528;44.712;2023-05-08T02:31:52;13.18;;;6.10;;
62679;SDS011;68213;40.528;44.712;2023-05-08T02:32:55;16.35;;;5.90;;
62679;SDS011;68213;40.528;44.712;2023-05-08T02:33:58;8.48;;;5.80;;
62679;SDS011;68213;40.528;44.712;2023-05-08T02:34:59;13.52;;;5.53;;
62679;SDS011;68213;40.528;44.712;2023-05-08T02:36:02;9.27;;;6.00;;
62679;SDS011;68213;40.528;44.712;2023-05-08T02:37:04;11.43;;;5.88;;
62679;SDS011;68213;40.528;44.712;2023-05-08T02:38:05;10.77;;;5.47;;
62679;SDS011;68213;40.528;44.712;2023-05-08T02:39:10;13.40;;;5.20;;
62679;SDS011;68213;40.528;44.712;2023-05-08T02:40:13;12.90;;;5.75;;
62679;SDS011;68213;40.528;44.712;2023-05-08T02:41:17;8.38;;;5.30;;
62679;SDS011;68213;40.528;44.712;2023-05-08T02:42:24;10.93;;;5.32;;
62679;SDS011;68213;40.528;44.712;2023-05-08T02:43:25;11.13;;;5.38;;
62679;SDS011;68213;40.528;44.712;2023-05-08T02:44:26;9.23;;;5.10;;
62679;SDS011;68213;40.528;44.712;2023-05-08T02:45:27;10.10;;;4.82;;
62679;SDS011;68213;40.528;44.712;2023-05-08T02:46:47;11.07;;;5.43;;
62679;SDS011;68213;40.528;44.712;2023-05-08T02:48:11;7.75;;;4.72;;
62679;SDS011;68213;40.528;44.712;2023-05-08T02:50:44;6.28;;;5.00;;
62679;SDS011;68213;40.528;44.712;2023-05-08T02:51:53;8.48;;;5.55;;
62679;SDS011;68213;40.528;44.712;2023-05-08T02:53:02;10.52;;;5.70;;
62679;SDS011;68213;40.528;44.712;2023-05-08T02:54:08;14.13;;;6.63;;
62679;SDS011;68213;40.528;44.712;2023-05-08T02:58:08;11.30;;;7.55;;
62679;SDS011;68213;40.528;44.712;2023-05-08T02:59:17;12.05;;;7.97;;
62679;SDS011;68213;40.528;44.712;2023-05-08T03:00:28;14.98;;;7.90;;
62679;SDS011;68213;40.528;44.712;2023-05-08T03:01:34;12.52;;;6.97;;
62679;SDS011;68213;40.528;44.712;2023-05-08T03:02:42;9.38;;;6.72;;
62679;SDS011;68213;40.528;44.712;2023-05-08T03:03:48;12.65;;;7.10;;
62679;SDS011;68213;40.528;44.712;2023-05-08T03:04:58;10.40;;;6.53;;
62679;SDS011;68213;40.528;44.712;2023-05-08T03:06:13;11.68;;;7.00;;
62679;SDS011;68213;40.528;44.712;2023-05-08T03:07:19;11.40;;;7.35;;
62679;SDS011;68213;40.528;44.712;2023-05-08T03:08:26;9.43;;;6.40;;
62679;SDS011;68213;40.528;44.712;2023-05-08T03:09:35;16.30;;;6.00;;
62679;SDS011;68213;40.528;44.712;2023-05-08T03:10:40;14.37;;;5.53;;
62679;SDS011;68213;40.528;44.712;2023-05-08T03:11:46;9.52;;;6.15;;
62679;SDS011;68213;40.528;44.712;2023-05-08T03:12:50;11.77;;;6.80;;
62679;SDS011;68213;40.528;44.712;2023-05-08T03:13:54;9.68;;;6.88;;
62679;SDS011;68213;40.528;44.712;2023-05-08T03:16:23;12.85;;;6.88;;
62679;SDS011;68213;40.528;44.712;2023-05-08T03:17:27;10.20;;;6.40;;
62679;SDS011;68213;40.528;44.712;2023-05-08T03:18:35;10.02;;;6.32;;
62679;SDS011;68213;40.528;44.712;2023-05-08T03:19:40;13.13;;;6.72;;
62679;SDS011;68213;40.528;44.712;2023-05-08T03:20:48;13.75;;;7.18;;
62679;SDS011;68213;40.528;44.712;2023-05-08T03:21:53;10.95;;;6.32;;
62679;SDS011;68213;40.528;44.712;2023-05-08T03:22:55;10.63;;;6.30;;
62679;SDS011;68213;40.528;44.712;2023-05-08T03:23:57;10.88;;;6.75;;
62679;SDS011;68213;40.528;44.712;2023-05-08T03:25:02;9.18;;;6.25;;
62679;SDS011;68213;40.528;44.712;2023-05-08T03:26:08;14.40;;;6.82;;
62679;SDS011;68213;40.528;44.712;2023-05-08T03:27:09;12.18;;;6.68;;
62679;SDS011;68213;40.528;44.712;2023-05-08T03:28:11;6.68;;;5.93;;
62679;SDS011;68213;40.528;44.712;2023-05-08T03:29:13;13.23;;;6.72;;
62679;SDS011;68213;40.528;44.712;2023-05-08T03:30:16;13.30;;;6.22;;
62679;SDS011;68213;40.528;44.712;2023-05-08T03:31:18;11.63;;;5.78;;
62679;SDS011;68213;40.528;44.712;2023-05-08T03:32:22;12.70;;;6.40;;
62679;SDS011;68213;40.528;44.712;2023-05-08T03:33:26;8.85;;;6.45;;
62679;SDS011;68213;40.528;44.712;2023-05-08T03:34:28;12.02;;;6.43;;
62679;SDS011;68213;40.528;44.712;2023-05-08T03:35:30;6.20;;;5.00;;
62679;SDS011;68213;40.528;44.712;2023-05-08T03:36:33;15.77;;;5.47;;
62679;SDS011;68213;40.528;44.712;2023-05-08T03:37:35;8.88;;;5.80;;
62679;SDS011;68213;40.528;44.712;2023-05-08T03:38:36;7.80;;;5.15;;
62679;SDS011;68213;40.528;44.712;2023-05-08T03:39:37;9.70;;;5.25;;
62679;SDS011;68213;40.528;44.712;2023-05-08T03:40:38;9.38;;;5.35;;
62679;SDS011;68213;40.528;44.712;2023-05-08T03:41:41;9.88;;;5.28;;
62679;SDS011;68213;40.528;44.712;2023-05-08T03:42:42;10.65;;;5.85;;
62679;SDS011;68213;40.528;44.712;2023-05-08T03:43:43;10.25;;;4.88;;
62679;SDS011;68213;40.528;44.712;2023-05-08T03:44:49;15.48;;;6.30;;
62679;SDS011;68213;40.528;44.712;2023-05-08T03:45:51;8.60;;;5.22;;
62679;SDS011;68213;40.528;44.712;2023-05-08T03:46:52;6.97;;;5.32;;
62679;SDS011;68213;40.528;44.712;2023-05-08T03:47:57;9.27;;;5.28;;
62679;SDS011;68213;40.528;44.712;2023-05-08T03:49:00;11.82;;;5.95;;
62679;SDS011;68213;40.528;44.712;2023-05-08T03:50:03;8.18;;;6.22;;
62679;SDS011;68213;40.528;44.712;2023-05-08T03:51:05;8.07;;;6.05;;
62679;SDS011;68213;40.528;44.712;2023-05-08T03:52:05;7.32;;;5.78;;
62679;SDS011;68213;40.528;44.712;2023-05-08T03:53:06;10.65;;;6.28;;
62679;SDS011;68213;40.528;44.712;2023-05-08T03:54:07;8.23;;;6.38;;
62679;SDS011;68213;40.528;44.712;2023-05-08T03:55:08;9.55;;;6.28;;
62679;SDS011;68213;40.528;44.712;2023-05-08T03:56:08;9.18;;;6.20;;
62679;SDS011;68213;40.528;44.712;2023-05-08T03:57:09;12.27;;;6.47;;
62679;SDS011;68213;40.528;44.712;2023-05-08T03:58:20;7.32;;;5.82;;
62679;SDS011;68213;40.528;44.712;2023-05-08T04:01:04;8.65;;;5.53;;
62679;SDS011;68213;40.528;44.712;2023-05-08T04:02:13;10.05;;;5.70;;
62679;SDS011;68213;40.528;44.712;2023-05-08T04:03:25;12.07;;;6.05;;
62679;SDS011;68213;40.528;44.712;2023-05-08T04:04:49;11.35;;;5.80;;
62679;SDS011;68213;40.528;44.712;2023-05-08T04:06:00;10.30;;;5.50;;
62679;SDS011;68213;40.528;44.712;2023-05-08T04:08:24;9.98;;;5.22;;
62679;SDS011;68213;40.528;44.712;2023-05-08T04:10:42;12.50;;;5.32;;
62679;SDS011;68213;40.528;44.712;2023-05-08T04:14:18;8.65;;;5.10;;
62679;SDS011;68213;40.528;44.712;2023-05-08T04:15:20;8.85;;;4.57;;
62679;SDS011;68213;40.528;44.712;2023-05-08T04:16:27;10.85;;;5.03;;
62679;SDS011;68213;40.528;44.712;2023-05-08T04:19:01;15.15;;;5.18;;
62679;SDS011;68213;40.528;44.712;2023-05-08T04:20:08;9.15;;;4.38;;
62679;SDS011;68213;40.528;44.712;2023-05-08T04:21:14;7.55;;;4.20;;
62679;SDS011;68213;40.528;44.712;2023-05-08T04:22:19;8.45;;;4.82;;
62679;SDS011;68213;40.528;44.712;2023-05-08T04:23:24;10.82;;;4.80;;
62679;SDS011;68213;40.528;44.712;2023-05-08T04:24:27;13.48;;;5.00;;
62679;SDS011;68213;40.528;44.712;2023-05-08T04:25:31;9.40;;;5.15;;
62679;SDS011;68213;40.528;44.712;2023-05-08T04:26:35;9.88;;;5.32;;
62679;SDS011;68213;40.528;44.712;2023-05-08T04:27:36;8.77;;;5.07;;
62679;SDS011;68213;40.528;44.712;2023-05-08T04:28:38;12.98;;;5.10;;
62679;SDS011;68213;40.528;44.712;2023-05-08T04:29:39;6.32;;;4.25;;
62679;SDS011;68213;40.528;44.712;2023-05-08T04:30:40;16.58;;;6.10;;
62679;SDS011;68213;40.528;44.712;2023-05-08T04:31:41;8.30;;;4.85;;
62679;SDS011;68213;40.528;44.712;2023-05-08T04:32:42;8.77;;;4.68;;
62679;SDS011;68213;40.528;44.712;2023-05-08T04:33:44;10.82;;;4.90;;
62679;SDS011;68213;40.528;44.712;2023-05-08T04:34:45;10.07;;;4.47;;
62679;SDS011;68213;40.528;44.712;2023-05-08T04:35:46;11.88;;;4.85;;
62679;SDS011;68213;40.528;44.712;2023-05-08T04:36:47;10.48;;;4.30;;
62679;SDS011;68213;40.528;44.712;2023-05-08T04:37:48;6.70;;;3.88;;
62679;SDS011;68213;40.528;44.712;2023-05-08T04:38:49;10.02;;;4.55;;
62679;SDS011;68213;40.528;44.712;2023-05-08T04:39:50;13.45;;;4.60;;
62679;SDS011;68213;40.528;44.712;2023-05-08T04:40:50;10.90;;;4.00;;
62679;SDS011;68213;40.528;44.712;2023-05-08T04:41:51;10.40;;;4.40;;
62679;SDS011;68213;40.528;44.712;2023-05-08T04:42:54;10.73;;;4.10;;
62679;SDS011;68213;40.528;44.712;2023-05-08T04:43:55;7.70;;;3.78;;
62679;SDS011;68213;40.528;44.712;2023-05-08T04:44:56;8.02;;;4.10;;
62679;SDS011;68213;40.528;44.712;2023-05-08T04:45:57;8.38;;;4.30;;
62679;SDS011;68213;40.528;44.712;2023-05-08T04:48:08;8.73;;;4.50;;
62679;SDS011;68213;40.528;44.712;2023-05-08T04:49:09;10.23;;;4.25;;
62679;SDS011;68213;40.528;44.712;2023-05-08T04:50:10;8.27;;;4.80;;
62679;SDS011;68213;40.528;44.712;2023-05-08T04:51:10;11.23;;;4.40;;
62679;SDS011;68213;40.528;44.712;2023-05-08T04:52:11;13.40;;;4.50;;
62679;SDS011;68213;40.528;44.712;2023-05-08T04:53:12;8.80;;;4.20;;
62679;SDS011;68213;40.528;44.712;2023-05-08T04:54:13;12.20;;;4.13;;
62679;SDS011;68213;40.528;44.712;2023-05-08T04:55:14;10.40;;;3.97;;
62679;SDS011;68213;40.528;44.712;2023-05-08T04:56:14;9.35;;;4.82;;
62679;SDS011;68213;40.528;44.712;2023-05-08T04:57:15;9.55;;;4.75;;
62679;SDS011;68213;40.528;44.712;2023-05-08T04:58:16;11.15;;;4.40;;
62679;SDS011;68213;40.528;44.712;2023-05-08T04:59:16;9.25;;;4.47;;
62679;SDS011;68213;40.528;44.712;2023-05-08T05:00:17;8.85;;;4.50;;
62679;SDS011;68213;40.528;44.712;2023-05-08T05:01:18;8.50;;;4.18;;
62679;SDS011;68213;40.528;44.712;2023-05-08T05:02:19;8.85;;;4.57;;
62679;SDS011;68213;40.528;44.712;2023-05-08T05:03:20;8.52;;;4.40;;
62679;SDS011;68213;40.528;44.712;2023-05-08T05:04:21;9.10;;;4.50;;
62679;SDS011;68213;40.528;44.712;2023-05-08T05:05:21;9.27;;;4.30;;
62679;SDS011;68213;40.528;44.712;2023-05-08T05:06:22;12.75;;;4.40;;
62679;SDS011;68213;40.528;44.712;2023-05-08T05:07:23;12.77;;;4.70;;
62679;SDS011;68213;40.528;44.712;2023-05-08T05:08:24;7.55;;;4.30;;
62679;SDS011;68213;40.528;44.712;2023-05-08T05:09:25;8.50;;;4.00;;
62679;SDS011;68213;40.528;44.712;2023-05-08T05:10:25;11.82;;;3.92;;
62679;SDS011;68213;40.528;44.712;2023-05-08T05:11:26;7.85;;;3.78;;
62679;SDS011;68213;40.528;44.712;2023-05-08T05:12:27;9.60;;;3.95;;
62679;SDS011;68213;40.528;44.712;2023-05-08T05:13:27;10.70;;;4.10;;
62679;SDS011;68213;40.528;44.712;2023-05-08T05:14:28;8.23;;;4.07;;
62679;SDS011;68213;40.528;44.712;2023-05-08T05:15:29;11.15;;;3.90;;
62679;SDS011;68213;40.528;44.712;2023-05-08T05:16:30;6.07;;;3.60;;
62679;SDS011;68213;40.528;44.712;2023-05-08T05:17:30;9.10;;;3.85;;
62679;SDS011;68213;40.528;44.712;2023-05-08T05:18:32;8.00;;;4.22;;
62679;SDS011;68213;40.528;44.712;2023-05-08T05:19:33;11.13;;;4.03;;
62679;SDS011;68213;40.528;44.712;2023-05-08T05:20:33;8.68;;;3.80;;
62679;SDS011;68213;40.528;44.712;2023-05-08T05:22:42;7.15;;;4.18;;
62679;SDS011;68213;40.528;44.712;2023-05-08T05:23:47;10.90;;;4.20;;
62679;SDS011;68213;40.528;44.712;2023-05-08T05:24:48;12.98;;;4.05;;
62679;SDS011;68213;40.528;44.712;2023-05-08T05:25:49;8.18;;;3.80;;
62679;SDS011;68213;40.528;44.712;2023-05-08T05:26:50;10.77;;;4.00;;
62679;SDS011;68213;40.528;44.712;2023-05-08T05:27:50;11.40;;;4.07;;
62679;SDS011;68213;40.528;44.712;2023-05-08T05:28:51;8.52;;;4.28;;
62679;SDS011;68213;40.528;44.712;2023-05-08T05:29:52;13.52;;;4.30;;
62679;SDS011;68213;40.528;44.712;2023-05-08T05:30:52;7.55;;;4.10;;
62679;SDS011;68213;40.528;44.712;2023-05-08T05:31:53;9.18;;;3.83;;
62679;SDS011;68213;40.528;44.712;2023-05-08T05:32:54;8.77;;;3.95;;
62679;SDS011;68213;40.528;44.712;2023-05-08T05:33:55;9.45;;;4.00;;
62679;SDS011;68213;40.528;44.712;2023-05-08T05:34:55;10.55;;;3.85;;
62679;SDS011;68213;40.528;44.712;2023-05-08T05:35:56;9.40;;;3.75;;
62679;SDS011;68213;40.528;44.712;2023-05-08T05:36:58;12.70;;;3.78;;
62679;SDS011;68213;40.528;44.712;2023-05-08T05:37:58;8.88;;;3.72;;
62679;SDS011;68213;40.528;44.712;2023-05-08T05:38:59;11.10;;;3.90;;
62679;SDS011;68213;40.528;44.712;2023-05-08T05:40:00;11.98;;;4.38;;
62679;SDS011;68213;40.528;44.712;2023-05-08T05:41:00;10.73;;;4.03;;
62679;SDS011;68213;40.528;44.712;2023-05-08T05:42:01;8.23;;;3.70;;
62679;SDS011;68213;40.528;44.712;2023-05-08T05:43:02;9.98;;;4.30;;
62679;SDS011;68213;40.528;44.712;2023-05-08T05:44:03;7.78;;;3.97;;
62679;SDS011;68213;40.528;44.712;2023-05-08T05:45:04;13.88;;;4.90;;
62679;SDS011;68213;40.528;44.712;2023-05-08T05:46:06;13.05;;;4.22;;
62679;SDS011;68213;40.528;44.712;2023-05-08T05:47:08;11.18;;;3.90;;
62679;SDS011;68213;40.528;44.712;2023-05-08T05:48:11;12.35;;;4.50;;
62679;SDS011;68213;40.528;44.712;2023-05-08T05:49:12;14.48;;;3.47;;
62679;SDS011;68213;40.528;44.712;2023-05-08T05:50:14;9.85;;;3.85;;
62679;SDS011;68213;40.528;44.712;2023-05-08T05:51:17;11.23;;;3.90;;
62679;SDS011;68213;40.528;44.712;2023-05-08T05:52:18;6.25;;;4.40;;
62679;SDS011;68213;40.528;44.712;2023-05-08T05:53:18;7.13;;;3.83;;
62679;SDS011;68213;40.528;44.712;2023-05-08T05:54:19;8.25;;;3.78;;
62679;SDS011;68213;40.528;44.712;2023-05-08T05:55:20;8.55;;;4.05;;
62679;SDS011;68213;40.528;44.712;2023-05-08T05:56:23;8.75;;;4.50;;
62679;SDS011;68213;40.528;44.712;2023-05-08T05:57:24;12.55;;;4.30;;
62679;SDS011;68213;40.528;44.712;2023-05-08T05:58:26;8.00;;;4.32;;
62679;SDS011;68213;40.528;44.712;2023-05-08T05:59:27;8.77;;;4.22;;
62679;SDS011;68213;40.528;44.712;2023-05-08T06:00:28;8.95;;;3.90;;
62679;SDS011;68213;40.528;44.712;2023-05-08T06:01:30;6.85;;;3.67;;
62679;SDS011;68213;40.528;44.712;2023-05-08T06:02:31;9.57;;;4.00;;
62679;SDS011;68213;40.528;44.712;2023-05-08T06:03:34;13.68;;;4.35;;
62679;SDS011;68213;40.528;44.712;2023-05-08T06:04:35;9.43;;;4.07;;
62679;SDS011;68213;40.528;44.712;2023-05-08T06:05:36;9.00;;;3.97;;
62679;SDS011;68213;40.528;44.712;2023-05-08T06:06:37;5.07;;;3.28;;
62679;SDS011;68213;40.528;44.712;2023-05-08T06:07:37;7.18;;;3.97;;
62679;SDS011;68213;40.528;44.712;2023-05-08T06:08:38;10.13;;;4.07;;
62679;SDS011;68213;40.528;44.712;2023-05-08T06:09:39;13.90;;;4.10;;
62679;SDS011;68213;40.528;44.712;2023-05-08T06:10:40;8.85;;;3.92;;
62679;SDS011;68213;40.528;44.712;2023-05-08T06:11:40;7.53;;;4.20;;
62679;SDS011;68213;40.528;44.712;2023-05-08T06:12:44;12.48;;;4.57;;
62679;SDS011;68213;40.528;44.712;2023-05-08T06:13:45;9.23;;;4.32;;
62679;SDS011;68213;40.528;44.712;2023-05-08T06:14:45;8.63;;;4.20;;
62679;SDS011;68213;40.528;44.712;2023-05-08T06:15:46;12.55;;;4.38;;
62679;SDS011;68213;40.528;44.712;2023-05-08T06:16:46;12.50;;;3.90;;
62679;SDS011;68213;40.528;44.712;2023-05-08T06:17:47;13.52;;;3.88;;
62679;SDS011;68213;40.528;44.712;2023-05-08T06:18:48;10.63;;;3.40;;
62679;SDS011;68213;40.528;44.712;2023-05-08T06:19:48;7.88;;;3.22;;
62679;SDS011;68213;40.528;44.712;2023-05-08T06:20:56;9.48;;;3.53;;
62679;SDS011;68213;40.528;44.712;2023-05-08T06:21:57;7.80;;;3.10;;
62679;SDS011;68213;40.528;44.712;2023-05-08T06:22:58;9.00;;;2.95;;
62679;SDS011;68213;40.528;44.712;2023-05-08T06:23:58;10.23;;;3.30;;
62679;SDS011;68213;40.528;44.712;2023-05-08T06:24:59;6.07;;;2.90;;
62679;SDS011;68213;40.528;44.712;2023-05-08T06:26:00;18.80;;;3.42;;
62679;SDS011;68213;40.528;44.712;2023-05-08T06:27:01;9.77;;;3.00;;
62679;SDS011;68213;40.528;44.712;2023-05-08T06:28:01;9.73;;;3.15;;
62679;SDS011;68213;40.528;44.712;2023-05-08T06:29:03;11.57;;;3.38;;
62679;SDS011;68213;40.528;44.712;2023-05-08T06:30:04;6.07;;;2.92;;
62679;SDS011;68213;40.528;44.712;2023-05-08T06:31:07;13.07;;;3.60;;
62679;SDS011;68213;40.528;44.712;2023-05-08T06:32:09;12.00;;;3.20;;
62679;SDS011;68213;40.528;44.712;2023-05-08T06:33:10;8.30;;;3.28;;
62679;SDS011;68213;40.528;44.712;2023-05-08T06:34:11;8.27;;;3.80;;
62679;SDS011;68213;40.528;44.712;2023-05-08T06:35:12;14.93;;;3.47;;
62679;SDS011;68213;40.528;44.712;2023-05-08T06:36:17;11.75;;;3.35;;
62679;SDS011;68213;40.528;44.712;2023-05-08T06:37:18;9.88;;;3.20;;
62679;SDS011;68213;40.528;44.712;2023-05-08T06:38:18;9.07;;;3.45;;
62679;SDS011;68213;40.528;44.712;2023-05-08T06:39:19;10.27;;;3.20;;
62679;SDS011;68213;40.528;44.712;2023-05-08T06:40:20;8.57;;;3.53;;
62679;SDS011;68213;40.528;44.712;2023-05-08T06:41:21;10.38;;;3.72;;
62679;SDS011;68213;40.528;44.712;2023-05-08T06:42:22;13.60;;;3.58;;